sensor_id;sensor_type;location;lat;lon;timestamp;pressure;altitude;pressure_sealevel;temperature;humidity
76352;BME280;65179;47.786;19.138;2023-01-08T00:00:54;100670.56;;;6.12;92.48
76352;BME280;65179;47.786;19.138;2023-01-08T00:03:20;100656.88;;;6.14;92.45
76352;BME280;65179;47.786;19.138;2023-01-08T00:05:45;100657.34;;;6.18;92.29
76352;BME280;65179;47.786;19.138;2023-01-08T00:08:10;100661.09;;;6.17;92.29
76352;BME280;65179;47.786;19.138;2023-01-08T00:10:37;100651.97;;;6.18;92.33
76352;BME280;65179;47.786;19.138;2023-01-08T00:13:03;100658.53;;;6.15;92.50
76352;BME280;65179;47.786;19.138;2023-01-08T00:15:29;100646.47;;;6.11;92.59
76352;BME280;65179;47.786;19.138;2023-01-08T00:17:55;100647.31;;;6.11;92.64
76352;BME280;65179;47.786;19.138;2023-01-08T00:20:21;100647.75;;;6.15;92.50
76352;BME280;65179;47.786;19.138;2023-01-08T00:22:48;100645.25;;;6.13;92.62
76352;BME280;65179;47.786;19.138;2023-01-08T00:25:13;100639.88;;;6.13;92.47
76352;BME280;65179;47.786;19.138;2023-01-08T00:27:39;100637.66;;;6.17;92.38
76352;BME280;65179;47.786;19.138;2023-01-08T00:30:04;100643.69;;;6.19;92.36
76352;BME280;65179;47.786;19.138;2023-01-08T00:32:30;100639.78;;;6.22;92.13
76352;BME280;65179;47.786;19.138;2023-01-08T00:34:55;100636.06;;;6.23;92.19
76352;BME280;65179;47.786;19.138;2023-01-08T00:37:21;100638.56;;;6.24;92.05
76352;BME280;65179;47.786;19.138;2023-01-08T00:39:46;100637.47;;;6.19;92.32
76352;BME280;65179;47.786;19.138;2023-01-08T00:42:11;100635.41;;;6.21;92.39
76352;BME280;65179;47.786;19.138;2023-01-08T00:44:37;100633.09;;;6.18;92.37
76352;BME280;65179;47.786;19.138;2023-01-08T00:47:03;100640.16;;;6.19;92.45
76352;BME280;65179;47.786;19.138;2023-01-08T00:49:28;100642.31;;;6.23;92.27
76352;BME280;65179;47.786;19.138;2023-01-08T00:51:54;100643.78;;;6.26;92.06
76352;BME280;65179;47.786;19.138;2023-01-08T00:54:20;100645.44;;;6.27;92.13
76352;BME280;65179;47.786;19.138;2023-01-08T00:56:45;100648.16;;;6.27;92.17
76352;BME280;65179;47.786;19.138;2023-01-08T00:59:11;100642.47;;;6.22;92.39
76352;BME280;65179;47.786;19.138;2023-01-08T01:01:36;100649.56;;;6.23;92.32
76352;BME280;65179;47.786;19.138;2023-01-08T01:04:02;100648.72;;;6.22;92.48
76352;BME280;65179;47.786;19.138;2023-01-08T01:06:28;100651.25;;;6.24;92.40
76352;BME280;65179;47.786;19.138;2023-01-08T01:08:53;100651.88;;;6.26;92.20
76352;BME280;65179;47.786;19.138;2023-01-08T01:11:26;100652.69;;;6.26;92.29
76352;BME280;65179;47.786;19.138;2023-01-08T01:13:53;100654.28;;;6.21;92.68
76352;BME280;65179;47.786;19.138;2023-01-08T01:16:19;100657.00;;;6.21;92.60
76352;BME280;65179;47.786;19.138;2023-01-08T01:18:45;100655.69;;;6.17;92.86
76352;BME280;65179;47.786;19.138;2023-01-08T01:21:30;100647.84;;;6.22;92.44
76352;BME280;65179;47.786;19.138;2023-01-08T01:23:59;100648.53;;;6.24;92.45
76352;BME280;65179;47.786;19.138;2023-01-08T01:26:25;100650.00;;;6.26;92.21
76352;BME280;65179;47.786;19.138;2023-01-08T01:28:53;100647.50;;;6.25;92.36
76352;BME280;65179;47.786;19.138;2023-01-08T01:31:20;100643.41;;;6.29;92.07
76352;BME280;65179;47.786;19.138;2023-01-08T01:33:45;100640.06;;;6.27;92.33
76352;BME280;65179;47.786;19.138;2023-01-08T01:36:12;100642.75;;;6.27;92.37
76352;BME280;65179;47.786;19.138;2023-01-08T01:38:41;100632.81;;;6.27;92.27
76352;BME280;65179;47.786;19.138;2023-01-08T01:41:12;100644.44;;;6.28;92.32
76352;BME280;65179;47.786;19.138;2023-01-08T01:43:42;100627.41;;;6.27;92.35
76352;BME280;65179;47.786;19.138;2023-01-08T01:46:38;100634.22;;;6.23;92.59
76352;BME280;65179;47.786;19.138;2023-01-08T01:49:17;100627.97;;;6.23;92.71
76352;BME280;65179;47.786;19.138;2023-01-08T01:51:49;100611.72;;;6.16;92.98
76352;BME280;65179;47.786;19.138;2023-01-08T01:54:16;100606.22;;;6.09;93.35
76352;BME280;65179;47.786;19.138;2023-01-08T01:56:42;100590.41;;;6.06;93.48
76352;BME280;65179;47.786;19.138;2023-01-08T01:59:09;100586.78;;;5.99;93.83
76352;BME280;65179;47.786;19.138;2023-01-08T02:01:35;100586.50;;;5.94;94.11
76352;BME280;65179;47.786;19.138;2023-01-08T02:04:01;100582.81;;;5.95;94.23
76352;BME280;65179;47.786;19.138;2023-01-08T02:12:05;100573.03;;;6.09;93.64
76352;BME280;65179;47.786;19.138;2023-01-08T02:17:23;100585.69;;;6.08;93.53
76352;BME280;65179;47.786;19.138;2023-01-08T02:19:59;100580.28;;;6.08;93.63
76352;BME280;65179;47.786;19.138;2023-01-08T02:25:34;100587.06;;;6.04;93.86
76352;BME280;65179;47.786;19.138;2023-01-08T02:28:10;100585.00;;;6.06;93.70
76352;BME280;65179;47.786;19.138;2023-01-08T02:30:37;100583.00;;;6.08;93.66
76352;BME280;65179;47.786;19.138;2023-01-08T02:33:03;100580.28;;;6.08;93.61
76352;BME280;65179;47.786;19.138;2023-01-08T02:35:49;100569.13;;;6.11;93.44
76352;BME280;65179;47.786;19.138;2023-01-08T02:38:16;100574.06;;;6.08;93.53
76352;BME280;65179;47.786;19.138;2023-01-08T02:41:03;100571.28;;;6.01;93.81
76352;BME280;65179;47.786;19.138;2023-01-08T02:43:41;100569.22;;;6.03;93.77
76352;BME280;65179;47.786;19.138;2023-01-08T02:46:13;100563.84;;;6.03;93.83
76352;BME280;65179;47.786;19.138;2023-01-08T02:48:48;100560.50;;;6.01;93.86
76352;BME280;65179;47.786;19.138;2023-01-08T02:53:47;100565.87;;;6.01;93.94
76352;BME280;65179;47.786;19.138;2023-01-08T02:56:17;100548.87;;;6.01;93.95
76352;BME280;65179;47.786;19.138;2023-01-08T02:58:45;100547.66;;;6.03;93.80
76352;BME280;65179;47.786;19.138;2023-01-08T03:01:14;100540.31;;;5.97;94.17
76352;BME280;65179;47.786;19.138;2023-01-08T03:03:43;100544.69;;;5.98;94.11
76352;BME280;65179;47.786;19.138;2023-01-08T03:06:13;100545.53;;;5.99;94.03
76352;BME280;65179;47.786;19.138;2023-01-08T03:08:41;100545.53;;;5.99;94.10
76352;BME280;65179;47.786;19.138;2023-01-08T03:11:10;100546.38;;;5.99;94.04
76352;BME280;65179;47.786;19.138;2023-01-08T03:14:01;100537.25;;;6.00;94.03
76352;BME280;65179;47.786;19.138;2023-01-08T03:19:19;100545.81;;;6.04;93.90
76352;BME280;65179;47.786;19.138;2023-01-08T03:21:47;100533.97;;;6.05;93.85
76352;BME280;65179;47.786;19.138;2023-01-08T03:24:16;100525.25;;;6.03;93.92
76352;BME280;65179;47.786;19.138;2023-01-08T03:26:43;100536.78;;;5.97;94.32
76352;BME280;65179;47.786;19.138;2023-01-08T03:29:13;100539.28;;;5.98;94.25
76352;BME280;65179;47.786;19.138;2023-01-08T03:31:40;100533.53;;;6.01;94.06
76352;BME280;65179;47.786;19.138;2023-01-08T03:34:07;100540.97;;;5.99;94.25
76352;BME280;65179;47.786;19.138;2023-01-08T03:36:34;100540.59;;;6.02;94.03
76352;BME280;65179;47.786;19.138;2023-01-08T03:39:07;100542.06;;;6.05;93.88
76352;BME280;65179;47.786;19.138;2023-01-08T03:41:34;100536.69;;;6.05;93.92
76352;BME280;65179;47.786;19.138;2023-01-08T03:44:00;100535.47;;;6.07;93.72
76352;BME280;65179;47.786;19.138;2023-01-08T03:46:35;100522.00;;;6.07;93.68
76352;BME280;65179;47.786;19.138;2023-01-08T03:49:03;100524.50;;;6.09;93.67
76352;BME280;65179;47.786;19.138;2023-01-08T03:51:41;100520.97;;;6.08;93.64
76352;BME280;65179;47.786;19.138;2023-01-08T03:54:10;100524.69;;;6.07;93.76
76352;BME280;65179;47.786;19.138;2023-01-08T03:56:37;100514.91;;;6.06;93.76
76352;BME280;65179;47.786;19.138;2023-01-08T03:59:02;100503.50;;;6.04;93.71
76352;BME280;65179;47.786;19.138;2023-01-08T04:01:28;100513.25;;;6.05;93.74
76352;BME280;65179;47.786;19.138;2023-01-08T04:03:53;100507.22;;;6.03;93.82
76352;BME280;65179;47.786;19.138;2023-01-08T04:06:19;100514.28;;;6.04;93.76
76352;BME280;65179;47.786;19.138;2023-01-08T04:08:46;100516.16;;;6.04;93.76
76352;BME280;65179;47.786;19.138;2023-01-08T04:11:12;100507.87;;;6.05;93.71
76352;BME280;65179;47.786;19.138;2023-01-08T04:13:37;100509.06;;;6.03;93.82
76352;BME280;65179;47.786;19.138;2023-01-08T04:16:04;100512.97;;;6.00;93.96
76352;BME280;65179;47.786;19.138;2023-01-08T04:18:29;100508.22;;;6.02;93.83
76352;BME280;65179;47.786;19.138;2023-01-08T04:20:55;100506.19;;;6.04;93.76
76352;BME280;65179;47.786;19.138;2023-01-08T04:23:20;100509.53;;;6.06;93.55
76352;BME280;65179;47.786;19.138;2023-01-08T04:25:45;100516.31;;;6.02;93.66
76352;BME280;65179;47.786;19.138;2023-01-08T04:28:11;100513.25;;;6.05;93.52
76352;BME280;65179;47.786;19.138;2023-01-08T04:30:36;100502.47;;;6.05;93.43
76352;BME280;65179;47.786;19.138;2023-01-08T04:33:02;100508.50;;;6.07;93.31
76352;BME280;65179;47.786;19.138;2023-01-08T04:35:27;100508.50;;;6.07;93.19
76352;BME280;65179;47.786;19.138;2023-01-08T04:37:53;100507.87;;;6.05;93.20
76352;BME280;65179;47.786;19.138;2023-01-08T04:40:18;100505.81;;;6.07;93.20
76352;BME280;65179;47.786;19.138;2023-01-08T04:42:44;100506.66;;;6.08;92.93
76352;BME280;65179;47.786;19.138;2023-01-08T04:45:09;100508.50;;;6.07;92.97
76352;BME280;65179;47.786;19.138;2023-01-08T04:47:35;100504.97;;;6.07;92.88
76352;BME280;65179;47.786;19.138;2023-01-08T04:50:00;100505.81;;;6.07;92.86
76352;BME280;65179;47.786;19.138;2023-01-08T04:52:27;100505.81;;;6.07;92.79
76352;BME280;65179;47.786;19.138;2023-01-08T04:54:54;100502.47;;;6.05;92.94
76352;BME280;65179;47.786;19.138;2023-01-08T04:57:19;100509.34;;;6.08;92.80
76352;BME280;65179;47.786;19.138;2023-01-08T04:59:45;100514.75;;;6.08;92.86
76352;BME280;65179;47.786;19.138;2023-01-08T05:02:10;100507.03;;;6.05;92.85
76352;BME280;65179;47.786;19.138;2023-01-08T05:04:36;100507.59;;;6.00;93.02
76352;BME280;65179;47.786;19.138;2023-01-08T05:07:02;100503.25;;;5.99;93.07
76352;BME280;65179;47.786;19.138;2023-01-08T05:09:28;100512.03;;;5.93;93.13
76352;BME280;65179;47.786;19.138;2023-01-08T05:11:53;100506.50;;;5.95;93.15
76352;BME280;65179;47.786;19.138;2023-01-08T05:14:19;100506.66;;;5.93;93.11
76352;BME280;65179;47.786;19.138;2023-01-08T05:16:44;100499.59;;;5.92;93.07
76352;BME280;65179;47.786;19.138;2023-01-08T05:19:10;100492.16;;;5.94;93.09
76352;BME280;65179;47.786;19.138;2023-01-08T05:21:35;100489.47;;;5.94;93.14
76352;BME280;65179;47.786;19.138;2023-01-08T05:24:01;100491.97;;;5.96;93.05
76352;BME280;65179;47.786;19.138;2023-01-08T05:26:26;100490.69;;;5.92;93.06
76352;BME280;65179;47.786;19.138;2023-01-08T05:28:52;100497.75;;;5.93;93.08
76352;BME280;65179;47.786;19.138;2023-01-08T05:31:17;100498.75;;;5.92;93.09
76352;BME280;65179;47.786;19.138;2023-01-08T05:33:42;100502.50;;;5.91;93.06
76352;BME280;65179;47.786;19.138;2023-01-08T05:36:10;100504.34;;;5.90;93.04
76352;BME280;65179;47.786;19.138;2023-01-08T05:38:37;100506.00;;;5.91;92.93
76352;BME280;65179;47.786;19.138;2023-01-08T05:41:03;100500.69;;;5.83;92.56
76352;BME280;65179;47.786;19.138;2023-01-08T05:43:29;100498.00;;;5.83;92.53
76352;BME280;65179;47.786;19.138;2023-01-08T05:45:59;100500.03;;;5.81;92.36
76352;BME280;65179;47.786;19.138;2023-01-08T05:48:29;100497.53;;;5.80;92.23
76352;BME280;65179;47.786;19.138;2023-01-08T05:50:55;100502.09;;;5.79;92.27
76352;BME280;65179;47.786;19.138;2023-01-08T05:53:21;100493.81;;;5.81;92.33
76352;BME280;65179;47.786;19.138;2023-01-08T05:55:46;100480.53;;;5.79;92.34
76352;BME280;65179;47.786;19.138;2023-01-08T05:58:12;100488.97;;;5.76;92.34
76352;BME280;65179;47.786;19.138;2023-01-08T06:00:38;100484.00;;;5.73;92.26
76352;BME280;65179;47.786;19.138;2023-01-08T06:03:03;100474.22;;;5.72;92.29
76352;BME280;65179;47.786;19.138;2023-01-08T06:05:30;100488.72;;;5.71;92.37
76352;BME280;65179;47.786;19.138;2023-01-08T06:07:57;100479.59;;;5.72;92.33
76352;BME280;65179;47.786;19.138;2023-01-08T06:10:22;100475.41;;;5.70;92.46
76352;BME280;65179;47.786;19.138;2023-01-08T06:12:48;100464.19;;;5.66;92.53
76352;BME280;65179;47.786;19.138;2023-01-08T06:15:13;100475.97;;;5.65;92.54
76352;BME280;65179;47.786;19.138;2023-01-08T06:17:39;100475.97;;;5.65;92.49
76352;BME280;65179;47.786;19.138;2023-01-08T06:20:04;100474.59;;;5.69;92.41
76352;BME280;65179;47.786;19.138;2023-01-08T06:22:30;100466.53;;;5.69;92.38
76352;BME280;65179;47.786;19.138;2023-01-08T06:24:55;100468.56;;;5.67;92.55
76352;BME280;65179;47.786;19.138;2023-01-08T06:27:21;100462.16;;;5.68;92.49
76352;BME280;65179;47.786;19.138;2023-01-08T06:29:46;100462.97;;;5.69;92.47
76352;BME280;65179;47.786;19.138;2023-01-08T06:32:12;100458.44;;;5.69;92.45
76352;BME280;65179;47.786;19.138;2023-01-08T06:34:37;100453.06;;;5.69;92.53
76352;BME280;65179;47.786;19.138;2023-01-08T06:37:03;100460.50;;;5.67;92.48
76352;BME280;65179;47.786;19.138;2023-01-08T06:39:28;100469.56;;;5.66;92.44
76352;BME280;65179;47.786;19.138;2023-01-08T06:41:53;100461.50;;;5.66;92.48
76352;BME280;65179;47.786;19.138;2023-01-08T06:44:19;100455.09;;;5.67;92.56
76352;BME280;65179;47.786;19.138;2023-01-08T06:46:44;100463.19;;;5.67;92.53
76352;BME280;65179;47.786;19.138;2023-01-08T06:49:10;100461.31;;;5.68;92.59
76352;BME280;65179;47.786;19.138;2023-01-08T06:51:36;100462.78;;;5.70;92.47
76352;BME280;65179;47.786;19.138;2023-01-08T06:54:01;100464.47;;;5.71;92.33
76352;BME280;65179;47.786;19.138;2023-01-08T06:56:27;100467.97;;;5.72;92.28
76352;BME280;65179;47.786;19.138;2023-01-08T06:58:52;100472.16;;;5.74;92.31
76352;BME280;65179;47.786;19.138;2023-01-08T07:01:18;100472.56;;;5.71;92.20
76352;BME280;65179;47.786;19.138;2023-01-08T07:03:43;100471.34;;;5.74;92.16
76352;BME280;65179;47.786;19.138;2023-01-08T07:06:14;100476.75;;;5.74;92.17
76352;BME280;65179;47.786;19.138;2023-01-08T07:08:42;100472.16;;;5.74;92.19
76352;BME280;65179;47.786;19.138;2023-01-08T07:11:08;100473.84;;;5.75;92.18
76352;BME280;65179;47.786;19.138;2023-01-08T07:13:33;100465.13;;;5.73;92.17
76352;BME280;65179;47.786;19.138;2023-01-08T07:16:10;100465.13;;;5.73;92.12
76352;BME280;65179;47.786;19.138;2023-01-08T07:18:36;100463.44;;;5.72;92.16
76352;BME280;65179;47.786;19.138;2023-01-08T07:21:03;100448.47;;;5.70;92.11
76352;BME280;65179;47.786;19.138;2023-01-08T07:23:29;100460.75;;;5.72;92.00
76352;BME280;65179;47.786;19.138;2023-01-08T07:25:54;100458.25;;;5.71;91.93
76352;BME280;65179;47.786;19.138;2023-01-08T07:28:20;100462.97;;;5.69;91.82
76352;BME280;65179;47.786;19.138;2023-01-08T07:30:45;100460.50;;;5.67;91.73
76352;BME280;65179;47.786;19.138;2023-01-08T07:33:11;100463.34;;;5.66;91.76
76352;BME280;65179;47.786;19.138;2023-01-08T07:35:36;100458.16;;;5.64;91.71
76352;BME280;65179;47.786;19.138;2023-01-08T07:38:03;100460.19;;;5.62;91.73
76352;BME280;65179;47.786;19.138;2023-01-08T07:40:29;100459.16;;;5.63;91.83
76352;BME280;65179;47.786;19.138;2023-01-08T07:43:00;100460.84;;;5.64;91.78
76352;BME280;65179;47.786;19.138;2023-01-08T07:45:30;100459.56;;;5.60;91.68
76352;BME280;65179;47.786;19.138;2023-01-08T07:47:57;100464.56;;;5.63;91.75
76352;BME280;65179;47.786;19.138;2023-01-08T07:50:23;100459.81;;;5.65;91.78
76352;BME280;65179;47.786;19.138;2023-01-08T07:52:48;100451.72;;;5.65;91.69
76352;BME280;65179;47.786;19.138;2023-01-08T07:55:14;100459.81;;;5.65;91.61
76352;BME280;65179;47.786;19.138;2023-01-08T07:57:39;100455.47;;;5.64;91.57
76352;BME280;65179;47.786;19.138;2023-01-08T08:00:05;100462.50;;;5.65;91.62
76352;BME280;65179;47.786;19.138;2023-01-08T08:02:32;100454.41;;;5.65;91.70
76352;BME280;65179;47.786;19.138;2023-01-08T08:04:57;100458.81;;;5.66;91.66
76352;BME280;65179;47.786;19.138;2023-01-08T08:07:23;100452.78;;;5.64;91.53
76352;BME280;65179;47.786;19.138;2023-01-08T08:09:48;100448.88;;;5.67;91.54
76352;BME280;65179;47.786;19.138;2023-01-08T08:12:14;100444.03;;;5.62;91.54
76352;BME280;65179;47.786;19.138;2023-01-08T08:14:39;100440.69;;;5.60;91.52
76352;BME280;65179;47.786;19.138;2023-01-08T08:17:05;100440.06;;;5.58;91.49
76352;BME280;65179;47.786;19.138;2023-01-08T08:19:30;100445.03;;;5.61;91.54
76352;BME280;65179;47.786;19.138;2023-01-08T08:21:56;100438.38;;;5.57;91.68
76352;BME280;65179;47.786;19.138;2023-01-08T08:24:21;100438.38;;;5.57;91.63
76352;BME280;65179;47.786;19.138;2023-01-08T08:26:46;100427.59;;;5.57;91.64
76352;BME280;65179;47.786;19.138;2023-01-08T08:29:12;100431.31;;;5.56;91.70
76352;BME280;65179;47.786;19.138;2023-01-08T08:31:38;100420.91;;;5.53;91.58
76352;BME280;65179;47.786;19.138;2023-01-08T08:34:03;100424.25;;;5.55;91.67
76352;BME280;65179;47.786;19.138;2023-01-08T08:36:31;100424.72;;;5.59;91.61
76352;BME280;65179;47.786;19.138;2023-01-08T08:38:56;100424.25;;;5.55;91.51
76352;BME280;65179;47.786;19.138;2023-01-08T08:41:21;100417.00;;;5.56;91.62
76352;BME280;65179;47.786;19.138;2023-01-08T08:43:47;100420.56;;;5.56;91.44
76352;BME280;65179;47.786;19.138;2023-01-08T08:46:15;100421.56;;;5.55;91.60
76352;BME280;65179;47.786;19.138;2023-01-08T08:48:40;100422.59;;;5.54;91.44
76352;BME280;65179;47.786;19.138;2023-01-08T08:51:06;100417.56;;;5.51;91.38
76352;BME280;65179;47.786;19.138;2023-01-08T08:53:31;100412.53;;;5.48;91.49
76352;BME280;65179;47.786;19.138;2023-01-08T08:55:57;100416.47;;;5.46;91.52
76352;BME280;65179;47.786;19.138;2023-01-08T08:58:23;100408.19;;;5.47;91.54
76352;BME280;65179;47.786;19.138;2023-01-08T09:00:48;100409.22;;;5.46;91.55
76352;BME280;65179;47.786;19.138;2023-01-08T09:03:15;100419.34;;;5.44;91.70
76352;BME280;65179;47.786;19.138;2023-01-08T09:05:41;100419.53;;;5.43;91.67
76352;BME280;65179;47.786;19.138;2023-01-08T09:08:07;100414.59;;;5.46;91.63
76352;BME280;65179;47.786;19.138;2023-01-08T09:10:33;100416.28;;;5.47;91.61
76352;BME280;65179;47.786;19.138;2023-01-08T09:12:58;100412.75;;;5.47;91.59
76352;BME280;65179;47.786;19.138;2023-01-08T09:15:23;100405.12;;;5.50;91.61
76352;BME280;65179;47.786;19.138;2023-01-08T09:17:56;100410.50;;;5.50;91.45
76352;BME280;65179;47.786;19.138;2023-01-08T09:20:23;100401.41;;;5.51;91.60
76352;BME280;65179;47.786;19.138;2023-01-08T09:22:49;100400.75;;;5.49;91.48
76352;BME280;65179;47.786;19.138;2023-01-08T09:25:15;100396.03;;;5.51;91.50
76352;BME280;65179;47.786;19.138;2023-01-08T09:27:40;100393.97;;;5.53;91.39
76352;BME280;65179;47.786;19.138;2023-01-08T09:30:06;100391.56;;;5.58;91.41
76352;BME280;65179;47.786;19.138;2023-01-08T09:32:32;100392.41;;;5.59;91.47
76352;BME280;65179;47.786;19.138;2023-01-08T09:34:57;100384.78;;;5.62;91.35
76352;BME280;65179;47.786;19.138;2023-01-08T09:37:23;100379.19;;;5.64;91.33
76352;BME280;65179;47.786;19.138;2023-01-08T09:39:49;100396.09;;;5.58;91.32
76352;BME280;65179;47.786;19.138;2023-01-08T09:42:15;100387.84;;;5.59;91.47
76352;BME280;65179;47.786;19.138;2023-01-08T09:44:44;100393.06;;;5.61;91.37
76352;BME280;65179;47.786;19.138;2023-01-08T09:47:36;100377.91;;;5.60;91.44
76352;BME280;65179;47.786;19.138;2023-01-08T09:50:11;100377.69;;;5.61;91.45
76352;BME280;65179;47.786;19.138;2023-01-08T09:52:37;100368.87;;;5.67;91.43
76352;BME280;65179;47.786;19.138;2023-01-08T09:55:11;100372.59;;;5.66;91.35
76352;BME280;65179;47.786;19.138;2023-01-08T09:57:37;100362.19;;;5.63;91.45
76352;BME280;65179;47.786;19.138;2023-01-08T10:00:03;100363.50;;;5.67;91.29
76352;BME280;65179;47.786;19.138;2023-01-08T10:02:36;100352.72;;;5.67;91.18
76352;BME280;65179;47.786;19.138;2023-01-08T10:05:14;100333.88;;;5.67;91.36
76352;BME280;65179;47.786;19.138;2023-01-08T10:07:40;100349.34;;;5.65;91.33
76352;BME280;65179;47.786;19.138;2023-01-08T10:10:16;100323.09;;;5.67;91.28
76352;BME280;65179;47.786;19.138;2023-01-08T10:12:43;100330.78;;;5.70;91.27
76352;BME280;65179;47.786;19.138;2023-01-08T10:15:13;100322.88;;;5.69;91.25
76352;BME280;65179;47.786;19.138;2023-01-08T10:17:53;100316.09;;;5.73;91.08
76352;BME280;65179;47.786;19.138;2023-01-08T10:20:22;100304.75;;;5.77;90.88
76352;BME280;65179;47.786;19.138;2023-01-08T10:22:49;100302.31;;;5.82;90.85
76352;BME280;65179;47.786;19.138;2023-01-08T10:25:21;100307.81;;;5.89;90.67
76352;BME280;65179;47.786;19.138;2023-01-08T10:30:27;100302.69;;;5.79;90.07
76352;BME280;65179;47.786;19.138;2023-01-08T10:33:02;100292.84;;;5.86;90.17
76352;BME280;65179;47.786;19.138;2023-01-08T10:35:39;100294.91;;;5.84;90.44
76352;BME280;65179;47.786;19.138;2023-01-08T10:38:05;100289.97;;;5.88;90.04
76352;BME280;65179;47.786;19.138;2023-01-08T10:40:45;100288.53;;;5.92;90.20
76352;BME280;65179;47.786;19.138;2023-01-08T10:46:06;100279.50;;;5.99;90.01
76352;BME280;65179;47.786;19.138;2023-01-08T10:48:36;100279.19;;;5.88;89.67
76352;BME280;65179;47.786;19.138;2023-01-08T10:51:18;100270.66;;;5.84;89.51
76352;BME280;65179;47.786;19.138;2023-01-08T10:53:44;100277.91;;;5.84;89.77
76352;BME280;65179;47.786;19.138;2023-01-08T10:56:39;100272.09;;;5.87;89.78
76352;BME280;65179;47.786;19.138;2023-01-08T10:59:05;100266.72;;;5.87;89.69
76352;BME280;65179;47.786;19.138;2023-01-08T11:01:31;100257.81;;;5.86;89.62
76352;BME280;65179;47.786;19.138;2023-01-08T11:04:01;100267.97;;;5.84;89.56
76352;BME280;65179;47.786;19.138;2023-01-08T11:06:32;100269.62;;;5.85;89.41
76352;BME280;65179;47.786;19.138;2023-01-08T11:09:22;100264.50;;;5.90;89.39
76352;BME280;65179;47.786;19.138;2023-01-08T11:11:48;100251.00;;;5.90;89.27
76352;BME280;65179;47.786;19.138;2023-01-08T11:14:31;100250.81;;;5.92;89.19
76352;BME280;65179;47.786;19.138;2023-01-08T11:16:59;100244.00;;;5.96;89.15
76352;BME280;65179;47.786;19.138;2023-01-08T11:19:31;100242.22;;;6.03;88.92
76352;BME280;65179;47.786;19.138;2023-01-08T11:22:03;100230.84;;;6.07;88.89
76352;BME280;65179;47.786;19.138;2023-01-08T11:24:31;100235.41;;;6.07;88.68
76352;BME280;65179;47.786;19.138;2023-01-08T11:27:06;100229.56;;;6.03;88.46
76352;BME280;65179;47.786;19.138;2023-01-08T11:37:23;100203.50;;;6.10;88.58
76352;BME280;65179;47.786;19.138;2023-01-08T11:39:51;100198.75;;;6.12;88.47
76352;BME280;65179;47.786;19.138;2023-01-08T11:42:36;100187.56;;;6.16;88.42
76352;BME280;65179;47.786;19.138;2023-01-08T11:50:27;100188.81;;;6.20;88.59
76352;BME280;65179;47.786;19.138;2023-01-08T11:53:13;100186.53;;;6.17;88.67
76352;BME280;65179;47.786;19.138;2023-01-08T12:00:59;100164.19;;;6.23;88.51
76352;BME280;65179;47.786;19.138;2023-01-08T12:03:54;100157.09;;;6.22;88.26
76352;BME280;65179;47.786;19.138;2023-01-08T12:09:12;100158.16;;;6.21;88.19
76352;BME280;65179;47.786;19.138;2023-01-08T12:11:50;100162.91;;;6.19;88.03
76352;BME280;65179;47.786;19.138;2023-01-08T12:14:43;100161.22;;;6.18;88.08
76352;BME280;65179;47.786;19.138;2023-01-08T12:26:23;100168.06;;;6.13;87.56
76352;BME280;65179;47.786;19.138;2023-01-08T12:29:18;100168.69;;;6.16;87.69
76352;BME280;65179;47.786;19.138;2023-01-08T12:34:44;100167.47;;;6.18;87.63
76352;BME280;65179;47.786;19.138;2023-01-08T12:37:20;100172.25;;;6.23;87.74
76352;BME280;65179;47.786;19.138;2023-01-08T12:40:03;100178.66;;;6.22;87.70
76352;BME280;65179;47.786;19.138;2023-01-08T12:42:34;100171.63;;;6.21;87.84
76352;BME280;65179;47.786;19.138;2023-01-08T12:45:03;100172.47;;;6.21;87.90
76352;BME280;65179;47.786;19.138;2023-01-08T12:47:31;100168.72;;;6.22;87.86
76352;BME280;65179;47.786;19.138;2023-01-08T12:50:08;100169.56;;;6.23;87.85
76352;BME280;65179;47.786;19.138;2023-01-08T12:52:57;100164.81;;;6.25;87.79
76352;BME280;65179;47.786;19.138;2023-01-08T12:55:47;100171.88;;;6.26;87.74
76352;BME280;65179;47.786;19.138;2023-01-08T12:58:30;100160.88;;;6.27;87.98
76352;BME280;65179;47.786;19.138;2023-01-08T13:01:06;100158.00;;;6.29;87.93
76352;BME280;65179;47.786;19.138;2023-01-08T13:03:36;100163.38;;;6.29;87.95
76352;BME280;65179;47.786;19.138;2023-01-08T13:06:11;100156.75;;;6.31;88.20
76352;BME280;65179;47.786;19.138;2023-01-08T13:08:40;100152.22;;;6.32;88.05
76352;BME280;65179;47.786;19.138;2023-01-08T13:11:08;100154.06;;;6.31;88.10
76352;BME280;65179;47.786;19.138;2023-01-08T13:13:40;100152.84;;;6.34;88.27
76352;BME280;65179;47.786;19.138;2023-01-08T13:16:18;100154.50;;;6.35;88.38
76352;BME280;65179;47.786;19.138;2023-01-08T13:19:01;100154.31;;;6.36;88.36
76352;BME280;65179;47.786;19.138;2023-01-08T13:21:41;100145.19;;;6.37;88.56
76352;BME280;65179;47.786;19.138;2023-01-08T13:24:38;100145.81;;;6.39;88.50
76352;BME280;65179;47.786;19.138;2023-01-08T13:27:26;100138.56;;;6.40;88.43
76352;BME280;65179;47.786;19.138;2023-01-08T13:29:52;100145.63;;;6.41;88.42
76352;BME280;65179;47.786;19.138;2023-01-08T13:32:24;100126.53;;;6.42;88.49
76352;BME280;65179;47.786;19.138;2023-01-08T13:35:21;100141.03;;;6.41;88.49
76352;BME280;65179;47.786;19.138;2023-01-08T13:37:52;100148.97;;;6.43;88.51
76352;BME280;65179;47.786;19.138;2023-01-08T13:40:53;100144.56;;;6.42;88.41
76352;BME280;65179;47.786;19.138;2023-01-08T13:46:03;100151.03;;;6.41;88.60
76352;BME280;65179;47.786;19.138;2023-01-08T13:48:39;100132.94;;;6.41;88.48
76352;BME280;65179;47.786;19.138;2023-01-08T13:51:38;100141.87;;;6.42;88.63
76352;BME280;65179;47.786;19.138;2023-01-08T13:54:30;100148.13;;;6.42;88.68
76352;BME280;65179;47.786;19.138;2023-01-08T13:57:03;100140.22;;;6.41;88.55
76352;BME280;65179;47.786;19.138;2023-01-08T14:02:01;100144.56;;;6.42;88.66